sensor_id;sensor_type;location;lat;lon;timestamp;P1;durP1;ratioP1;P2;durP2;ratioP2
9547;SDS011;4812;51.992;8.648;2022-11-11T00:01:34;12.73;;;11.73;;
9547;SDS011;4812;51.992;8.648;2022-11-11T00:04:20;12.93;;;11.30;;
9547;SDS011;4812;51.992;8.648;2022-11-11T00:07:06;14.10;;;11.47;;
9547;SDS011;4812;51.992;8.648;2022-11-11T00:09:53;12.93;;;11.90;;
9547;SDS011;4812;51.992;8.648;2022-11-11T00:12:38;13.13;;;12.10;;
9547;SDS011;4812;51.992;8.648;2022-11-11T00:15:24;14.07;;;11.50;;
9547;SDS011;4812;51.992;8.648;2022-11-11T00:18:12;15.17;;;12.67;;
9547;SDS011;4812;51.992;8.648;2022-11-11T00:21:16;13.03;;;11.93;;
9547;SDS011;4812;51.992;8.648;2022-11-11T00:24:20;12.73;;;11.73;;
9547;SDS011;4812;51.992;8.648;2022-11-11T00:27:26;13.10;;;12.07;;
9547;SDS011;4812;51.992;8.648;2022-11-11T00:30:12;12.80;;;11.80;;
9547;SDS011;4812;51.992;8.648;2022-11-11T00:32:58;12.80;;;12.00;;
9547;SDS011;4812;51.992;8.648;2022-11-11T00:35:46;13.40;;;12.13;;
9547;SDS011;4812;51.992;8.648;2022-11-11T00:38:38;12.47;;;11.60;;
9547;SDS011;4812;51.992;8.648;2022-11-11T00:41:30;12.67;;;11.77;;
9547;SDS011;4812;51.992;8.648;2022-11-11T00:44:17;13.47;;;12.10;;
9547;SDS011;4812;51.992;8.648;2022-11-11T00:47:03;13.03;;;12.13;;
9547;SDS011;4812;51.992;8.648;2022-11-11T00:50:09;12.40;;;11.60;;
9547;SDS011;4812;51.992;8.648;2022-11-11T00:53:15;13.10;;;12.00;;
9547;SDS011;4812;51.992;8.648;2022-11-11T00:56:10;13.33;;;12.10;;
9547;SDS011;4812;51.992;8.648;2022-11-11T00:58:56;13.10;;;12.10;;
9547;SDS011;4812;51.992;8.648;2022-11-11T01:01:42;12.90;;;12.00;;
9547;SDS011;4812;51.992;8.648;2022-11-11T01:04:28;12.93;;;12.03;;
9547;SDS011;4812;51.992;8.648;2022-11-11T01:07:15;13.10;;;12.23;;
9547;SDS011;4812;51.992;8.648;2022-11-11T01:10:02;14.47;;;13.03;;
9547;SDS011;4812;51.992;8.648;2022-11-11T01:12:52;13.43;;;12.43;;
9547;SDS011;4812;51.992;8.648;2022-11-11T01:15:57;13.73;;;12.67;;
9547;SDS011;4812;51.992;8.648;2022-11-11T01:18:44;13.97;;;12.93;;
9547;SDS011;4812;51.992;8.648;2022-11-11T01:21:30;13.87;;;12.63;;
9547;SDS011;4812;51.992;8.648;2022-11-11T01:24:16;14.83;;;13.63;;
9547;SDS011;4812;51.992;8.648;2022-11-11T01:27:03;13.63;;;12.63;;
9547;SDS011;4812;51.992;8.648;2022-11-11T01:29:50;14.20;;;13.00;;
9547;SDS011;4812;51.992;8.648;2022-11-11T01:32:36;13.73;;;12.70;;
9547;SDS011;4812;51.992;8.648;2022-11-11T01:35:22;14.27;;;13.03;;
9547;SDS011;4812;51.992;8.648;2022-11-11T01:38:08;14.30;;;13.20;;
9547;SDS011;4812;51.992;8.648;2022-11-11T01:40:55;14.10;;;13.10;;
9547;SDS011;4812;51.992;8.648;2022-11-11T01:43:43;13.97;;;12.87;;
9547;SDS011;4812;51.992;8.648;2022-11-11T01:46:30;13.50;;;12.53;;
9547;SDS011;4812;51.992;8.648;2022-11-11T01:49:20;14.33;;;13.33;;
9547;SDS011;4812;51.992;8.648;2022-11-11T01:52:12;13.37;;;12.27;;
9547;SDS011;4812;51.992;8.648;2022-11-11T01:55:01;14.07;;;13.07;;
9547;SDS011;4812;51.992;8.648;2022-11-11T01:57:49;14.70;;;13.37;;
9547;SDS011;4812;51.992;8.648;2022-11-11T02:00:39;13.83;;;12.83;;
9547;SDS011;4812;51.992;8.648;2022-11-11T02:03:26;13.67;;;12.70;;
9547;SDS011;4812;51.992;8.648;2022-11-11T02:06:15;13.17;;;12.37;;
9547;SDS011;4812;51.992;8.648;2022-11-11T02:09:01;13.50;;;12.67;;
9547;SDS011;4812;51.992;8.648;2022-11-11T02:11:48;13.90;;;12.73;;
9547;SDS011;4812;51.992;8.648;2022-11-11T02:14:53;13.67;;;12.57;;
9547;SDS011;4812;51.992;8.648;2022-11-11T02:17:42;13.90;;;12.90;;
9547;SDS011;4812;51.992;8.648;2022-11-11T02:20:35;14.53;;;13.40;;
9547;SDS011;4812;51.992;8.648;2022-11-11T02:23:23;14.33;;;13.20;;
9547;SDS011;4812;51.992;8.648;2022-11-11T02:26:15;14.50;;;13.13;;
9547;SDS011;4812;51.992;8.648;2022-11-11T02:29:02;13.47;;;12.47;;
9547;SDS011;4812;51.992;8.648;2022-11-11T02:31:52;14.43;;;13.23;;
9547;SDS011;4812;51.992;8.648;2022-11-11T02:34:38;14.53;;;13.27;;
9547;SDS011;4812;51.992;8.648;2022-11-11T02:37:25;14.40;;;13.50;;
9547;SDS011;4812;51.992;8.648;2022-11-11T02:40:12;13.97;;;13.10;;
9547;SDS011;4812;51.992;8.648;2022-11-11T02:43:01;14.40;;;13.30;;
9547;SDS011;4812;51.992;8.648;2022-11-11T02:45:47;13.70;;;12.87;;
9547;SDS011;4812;51.992;8.648;2022-11-11T02:48:34;14.73;;;13.53;;
9547;SDS011;4812;51.992;8.648;2022-11-11T02:51:20;14.33;;;13.23;;
9547;SDS011;4812;51.992;8.648;2022-11-11T02:54:05;14.20;;;13.23;;
9547;SDS011;4812;51.992;8.648;2022-11-11T02:56:52;14.53;;;13.53;;
9547;SDS011;4812;51.992;8.648;2022-11-11T02:59:54;15.60;;;14.20;;
9547;SDS011;4812;51.992;8.648;2022-11-11T03:02:42;14.70;;;13.80;;
9547;SDS011;4812;51.992;8.648;2022-11-11T03:05:28;14.83;;;13.40;;
9547;SDS011;4812;51.992;8.648;2022-11-11T03:08:14;14.13;;;13.13;;
9547;SDS011;4812;51.992;8.648;2022-11-11T03:11:00;14.83;;;13.87;;
9547;SDS011;4812;51.992;8.648;2022-11-11T03:13:47;14.10;;;13.10;;
9547;SDS011;4812;51.992;8.648;2022-11-11T03:16:34;14.77;;;13.57;;
9547;SDS011;4812;51.992;8.648;2022-11-11T03:19:38;15.70;;;14.40;;
9547;SDS011;4812;51.992;8.648;2022-11-11T03:22:24;14.63;;;13.53;;
9547;SDS011;4812;51.992;8.648;2022-11-11T03:25:31;15.13;;;13.80;;
9547;SDS011;4812;51.992;8.648;2022-11-11T03:28:25;14.30;;;13.30;;
9547;SDS011;4812;51.992;8.648;2022-11-11T03:31:11;14.70;;;13.40;;
9547;SDS011;4812;51.992;8.648;2022-11-11T03:33:58;14.17;;;13.37;;
9547;SDS011;4812;51.992;8.648;2022-11-11T03:37:02;14.03;;;13.13;;
9547;SDS011;4812;51.992;8.648;2022-11-11T03:40:07;14.57;;;13.57;;
9547;SDS011;4812;51.992;8.648;2022-11-11T03:42:54;14.10;;;13.20;;
9547;SDS011;4812;51.992;8.648;2022-11-11T03:45:48;14.57;;;13.67;;
9547;SDS011;4812;51.992;8.648;2022-11-11T03:48:35;14.97;;;13.97;;
9547;SDS011;4812;51.992;8.648;2022-11-11T03:51:22;14.77;;;13.77;;
9547;SDS011;4812;51.992;8.648;2022-11-11T03:54:08;14.40;;;13.50;;
9547;SDS011;4812;51.992;8.648;2022-11-11T03:56:54;15.27;;;14.07;;
9547;SDS011;4812;51.992;8.648;2022-11-11T04:00:02;14.77;;;13.77;;
9547;SDS011;4812;51.992;8.648;2022-11-11T04:03:02;14.83;;;13.83;;
9547;SDS011;4812;51.992;8.648;2022-11-11T04:06:08;15.60;;;14.10;;
9547;SDS011;4812;51.992;8.648;2022-11-11T04:09:13;14.83;;;13.63;;
9547;SDS011;4812;51.992;8.648;2022-11-11T04:12:17;15.10;;;14.20;;
9547;SDS011;4812;51.992;8.648;2022-11-11T04:15:03;14.33;;;13.47;;
9547;SDS011;4812;51.992;8.648;2022-11-11T04:18:08;15.63;;;14.50;;
9547;SDS011;4812;51.992;8.648;2022-11-11T04:20:54;14.60;;;13.60;;
9547;SDS011;4812;51.992;8.648;2022-11-11T04:23:57;14.90;;;13.87;;
9547;SDS011;4812;51.992;8.648;2022-11-11T04:26:45;15.03;;;13.93;;
9547;SDS011;4812;51.992;8.648;2022-11-11T04:29:30;15.17;;;13.77;;
9547;SDS011;4812;51.992;8.648;2022-11-11T04:32:17;17.23;;;14.57;;
9547;SDS011;4812;51.992;8.648;2022-11-11T04:35:22;14.73;;;13.63;;
9547;SDS011;4812;51.992;8.648;2022-11-11T04:38:10;14.97;;;13.87;;
9547;SDS011;4812;51.992;8.648;2022-11-11T04:41:14;14.67;;;13.73;;
9547;SDS011;4812;51.992;8.648;2022-11-11T04:44:01;15.30;;;14.30;;
9547;SDS011;4812;51.992;8.648;2022-11-11T04:47:05;15.20;;;14.00;;
9547;SDS011;4812;51.992;8.648;2022-11-11T04:49:51;15.67;;;14.57;;
9547;SDS011;4812;51.992;8.648;2022-11-11T04:52:37;15.20;;;14.07;;
9547;SDS011;4812;51.992;8.648;2022-11-11T04:55:23;14.93;;;13.80;;
9547;SDS011;4812;51.992;8.648;2022-11-11T04:58:28;14.87;;;13.83;;
9547;SDS011;4812;51.992;8.648;2022-11-11T05:01:17;15.10;;;14.00;;
9547;SDS011;4812;51.992;8.648;2022-11-11T05:04:23;14.43;;;13.47;;
9547;SDS011;4812;51.992;8.648;2022-11-11T05:07:08;15.00;;;13.60;;
9547;SDS011;4812;51.992;8.648;2022-11-11T05:10:12;14.40;;;13.50;;
9547;SDS011;4812;51.992;8.648;2022-11-11T05:12:58;14.77;;;13.77;;
9547;SDS011;4812;51.992;8.648;2022-11-11T05:16:05;14.93;;;13.90;;
9547;SDS011;4812;51.992;8.648;2022-11-11T05:19:10;14.73;;;13.73;;
9547;SDS011;4812;51.992;8.648;2022-11-11T05:22:17;15.30;;;14.20;;
9547;SDS011;4812;51.992;8.648;2022-11-11T05:25:06;14.87;;;13.87;;
9547;SDS011;4812;51.992;8.648;2022-11-11T05:28:10;15.10;;;14.00;;
9547;SDS011;4812;51.992;8.648;2022-11-11T05:30:56;15.83;;;14.77;;
9547;SDS011;4812;51.992;8.648;2022-11-11T05:33:43;15.47;;;14.50;;
9547;SDS011;4812;51.992;8.648;2022-11-11T05:36:30;15.70;;;14.70;;
9547;SDS011;4812;51.992;8.648;2022-11-11T05:39:16;15.87;;;14.77;;
9547;SDS011;4812;51.992;8.648;2022-11-11T05:42:02;16.43;;;15.27;;
9547;SDS011;4812;51.992;8.648;2022-11-11T05:44:48;15.87;;;14.63;;
9547;SDS011;4812;51.992;8.648;2022-11-11T05:47:34;15.43;;;14.53;;
9547;SDS011;4812;51.992;8.648;2022-11-11T05:50:21;15.90;;;14.60;;
9547;SDS011;4812;51.992;8.648;2022-11-11T05:53:08;15.37;;;14.47;;
9547;SDS011;4812;51.992;8.648;2022-11-11T05:55:54;15.40;;;14.17;;
9547;SDS011;4812;51.992;8.648;2022-11-11T05:58:40;15.57;;;14.57;;
9547;SDS011;4812;51.992;8.648;2022-11-11T06:01:32;15.60;;;14.50;;
9547;SDS011;4812;51.992;8.648;2022-11-11T06:04:18;15.30;;;14.20;;
9547;SDS011;4812;51.992;8.648;2022-11-11T06:07:04;14.80;;;13.77;;
9547;SDS011;4812;51.992;8.648;2022-11-11T06:09:52;14.73;;;13.70;;
9547;SDS011;4812;51.992;8.648;2022-11-11T06:12:58;14.83;;;13.83;;
9547;SDS011;4812;51.992;8.648;2022-11-11T06:15:49;15.17;;;14.03;;
9547;SDS011;4812;51.992;8.648;2022-11-11T06:18:35;15.73;;;14.43;;
9547;SDS011;4812;51.992;8.648;2022-11-11T06:21:21;15.03;;;14.10;;
9547;SDS011;4812;51.992;8.648;2022-11-11T06:24:07;15.27;;;14.37;;
9547;SDS011;4812;51.992;8.648;2022-11-11T06:26:54;15.63;;;14.57;;
9547;SDS011;4812;51.992;8.648;2022-11-11T06:29:40;15.87;;;14.73;;
9547;SDS011;4812;51.992;8.648;2022-11-11T06:32:27;15.20;;;14.20;;
9547;SDS011;4812;51.992;8.648;2022-11-11T06:35:14;15.47;;;14.30;;
9547;SDS011;4812;51.992;8.648;2022-11-11T06:37:59;15.73;;;14.73;;
9547;SDS011;4812;51.992;8.648;2022-11-11T06:40:46;14.97;;;13.90;;
9547;SDS011;4812;51.992;8.648;2022-11-11T06:43:33;15.20;;;14.20;;
9547;SDS011;4812;51.992;8.648;2022-11-11T06:46:21;15.57;;;14.47;;
9547;SDS011;4812;51.992;8.648;2022-11-11T06:49:07;15.03;;;14.13;;
9547;SDS011;4812;51.992;8.648;2022-11-11T06:51:54;15.17;;;14.27;;
9547;SDS011;4812;51.992;8.648;2022-11-11T06:54:40;16.07;;;14.77;;
9547;SDS011;4812;51.992;8.648;2022-11-11T06:57:26;16.20;;;14.87;;
9547;SDS011;4812;51.992;8.648;2022-11-11T07:00:14;16.10;;;15.10;;
9547;SDS011;4812;51.992;8.648;2022-11-11T07:03:01;15.53;;;14.63;;
9547;SDS011;4812;51.992;8.648;2022-11-11T07:05:47;15.83;;;14.83;;
9547;SDS011;4812;51.992;8.648;2022-11-11T07:08:39;15.70;;;14.60;;
9547;SDS011;4812;51.992;8.648;2022-11-11T07:11:28;15.83;;;14.73;;
9547;SDS011;4812;51.992;8.648;2022-11-11T07:14:14;16.37;;;14.80;;
9547;SDS011;4812;51.992;8.648;2022-11-11T07:17:01;15.87;;;14.77;;
9547;SDS011;4812;51.992;8.648;2022-11-11T07:19:50;16.13;;;14.87;;
9547;SDS011;4812;51.992;8.648;2022-11-11T07:22:37;15.50;;;14.50;;
9547;SDS011;4812;51.992;8.648;2022-11-11T07:25:23;16.30;;;15.20;;
9547;SDS011;4812;51.992;8.648;2022-11-11T07:28:09;15.50;;;14.60;;
9547;SDS011;4812;51.992;8.648;2022-11-11T07:30:55;16.10;;;14.80;;
9547;SDS011;4812;51.992;8.648;2022-11-11T07:33:42;15.83;;;14.70;;
9547;SDS011;4812;51.992;8.648;2022-11-11T07:36:29;15.17;;;14.27;;
9547;SDS011;4812;51.992;8.648;2022-11-11T07:39:15;15.47;;;14.27;;
9547;SDS011;4812;51.992;8.648;2022-11-11T07:42:01;15.30;;;14.40;;
9547;SDS011;4812;51.992;8.648;2022-11-11T07:44:47;15.60;;;14.50;;
9547;SDS011;4812;51.992;8.648;2022-11-11T07:47:33;15.00;;;14.10;;
9547;SDS011;4812;51.992;8.648;2022-11-11T07:50:20;15.83;;;14.70;;
9547;SDS011;4812;51.992;8.648;2022-11-11T07:53:07;16.50;;;15.20;;
9547;SDS011;4812;51.992;8.648;2022-11-11T07:55:52;15.93;;;14.90;;
9547;SDS011;4812;51.992;8.648;2022-11-11T07:58:38;16.33;;;15.23;;
9547;SDS011;4812;51.992;8.648;2022-11-11T08:01:24;15.70;;;14.70;;
9547;SDS011;4812;51.992;8.648;2022-11-11T08:04:11;15.97;;;14.80;;
9547;SDS011;4812;51.992;8.648;2022-11-11T08:06:59;16.13;;;14.97;;
9547;SDS011;4812;51.992;8.648;2022-11-11T08:09:45;15.50;;;14.40;;
9547;SDS011;4812;51.992;8.648;2022-11-11T08:12:31;15.27;;;14.37;;
9547;SDS011;4812;51.992;8.648;2022-11-11T08:15:35;15.77;;;14.77;;
9547;SDS011;4812;51.992;8.648;2022-11-11T08:18:21;16.43;;;15.23;;
9547;SDS011;4812;51.992;8.648;2022-11-11T08:21:07;15.60;;;14.70;;
9547;SDS011;4812;51.992;8.648;2022-11-11T08:23:55;15.47;;;14.50;;
9547;SDS011;4812;51.992;8.648;2022-11-11T08:27:01;14.93;;;14.13;;
9547;SDS011;4812;51.992;8.648;2022-11-11T08:29:47;15.30;;;14.30;;
9547;SDS011;4812;51.992;8.648;2022-11-11T08:32:33;15.80;;;14.80;;
9547;SDS011;4812;51.992;8.648;2022-11-11T08:35:20;15.50;;;14.50;;
9547;SDS011;4812;51.992;8.648;2022-11-11T08:38:06;16.33;;;15.00;;
9547;SDS011;4812;51.992;8.648;2022-11-11T08:40:53;15.67;;;14.77;;
9547;SDS011;4812;51.992;8.648;2022-11-11T08:43:39;16.77;;;15.33;;
9547;SDS011;4812;51.992;8.648;2022-11-11T08:46:25;16.57;;;15.47;;
9547;SDS011;4812;51.992;8.648;2022-11-11T08:49:11;16.80;;;15.60;;
9547;SDS011;4812;51.992;8.648;2022-11-11T08:51:58;16.30;;;15.27;;
9547;SDS011;4812;51.992;8.648;2022-11-11T08:54:43;16.37;;;15.27;;
9547;SDS011;4812;51.992;8.648;2022-11-11T08:57:31;16.20;;;15.07;;
9547;SDS011;4812;51.992;8.648;2022-11-11T09:00:17;15.93;;;14.80;;
9547;SDS011;4812;51.992;8.648;2022-11-11T09:03:04;15.47;;;14.57;;
9547;SDS011;4812;51.992;8.648;2022-11-11T09:05:51;17.40;;;15.83;;
9547;SDS011;4812;51.992;8.648;2022-11-11T09:08:37;16.30;;;15.20;;
9547;SDS011;4812;51.992;8.648;2022-11-11T09:11:26;15.93;;;14.90;;
9547;SDS011;4812;51.992;8.648;2022-11-11T09:14:21;16.50;;;15.30;;
9547;SDS011;4812;51.992;8.648;2022-11-11T09:17:08;16.50;;;15.33;;
9547;SDS011;4812;51.992;8.648;2022-11-11T09:19:54;16.50;;;15.40;;
9547;SDS011;4812;51.992;8.648;2022-11-11T09:22:43;17.03;;;15.90;;
9547;SDS011;4812;51.992;8.648;2022-11-11T09:25:29;16.87;;;15.67;;
9547;SDS011;4812;51.992;8.648;2022-11-11T09:28:15;16.63;;;15.50;;
9547;SDS011;4812;51.992;8.648;2022-11-11T09:31:03;16.73;;;15.63;;
9547;SDS011;4812;51.992;8.648;2022-11-11T09:34:09;16.83;;;15.73;;
9547;SDS011;4812;51.992;8.648;2022-11-11T09:36:56;16.87;;;15.77;;
9547;SDS011;4812;51.992;8.648;2022-11-11T09:39:42;17.00;;;15.90;;
9547;SDS011;4812;51.992;8.648;2022-11-11T09:42:30;16.70;;;15.60;;
9547;SDS011;4812;51.992;8.648;2022-11-11T09:45:22;16.40;;;15.37;;
9547;SDS011;4812;51.992;8.648;2022-11-11T09:48:19;16.47;;;15.47;;
9547;SDS011;4812;51.992;8.648;2022-11-11T09:51:14;16.47;;;15.30;;
9547;SDS011;4812;51.992;8.648;2022-11-11T09:54:04;17.10;;;15.90;;
9547;SDS011;4812;51.992;8.648;2022-11-11T09:56:53;16.87;;;15.67;;
9547;SDS011;4812;51.992;8.648;2022-11-11T09:59:40;17.07;;;15.97;;
9547;SDS011;4812;51.992;8.648;2022-11-11T10:02:32;17.77;;;16.50;;
9547;SDS011;4812;51.992;8.648;2022-11-11T10:05:23;17.50;;;16.30;;
9547;SDS011;4812;51.992;8.648;2022-11-11T10:08:12;16.90;;;15.90;;
9547;SDS011;4812;51.992;8.648;2022-11-11T10:11:00;17.00;;;15.90;;
9547;SDS011;4812;51.992;8.648;2022-11-11T10:13:47;17.63;;;16.53;;
9547;SDS011;4812;51.992;8.648;2022-11-11T10:16:35;17.77;;;16.57;;
9547;SDS011;4812;51.992;8.648;2022-11-11T10:19:26;17.03;;;15.93;;
9547;SDS011;4812;51.992;8.648;2022-11-11T10:22:19;16.93;;;15.83;;
9547;SDS011;4812;51.992;8.648;2022-11-11T10:25:13;17.07;;;15.97;;
9547;SDS011;4812;51.992;8.648;2022-11-11T10:28:04;17.80;;;16.40;;
9547;SDS011;4812;51.992;8.648;2022-11-11T10:30:53;17.10;;;16.00;;
9547;SDS011;4812;51.992;8.648;2022-11-11T10:33:41;17.47;;;16.17;;
9547;SDS011;4812;51.992;8.648;2022-11-11T10:36:31;17.80;;;16.60;;
9547;SDS011;4812;51.992;8.648;2022-11-11T10:39:23;17.90;;;16.43;;
9547;SDS011;4812;51.992;8.648;2022-11-11T10:42:13;17.03;;;15.90;;
9547;SDS011;4812;51.992;8.648;2022-11-11T10:45:01;16.80;;;15.70;;
9547;SDS011;4812;51.992;8.648;2022-11-11T10:47:51;17.13;;;16.03;;
9547;SDS011;4812;51.992;8.648;2022-11-11T10:50:39;16.97;;;15.53;;
9547;SDS011;4812;51.992;8.648;2022-11-11T10:53:28;17.17;;;15.83;;
9547;SDS011;4812;51.992;8.648;2022-11-11T10:56:20;16.40;;;15.43;;
9547;SDS011;4812;51.992;8.648;2022-11-11T10:59:13;16.97;;;15.87;;
9547;SDS011;4812;51.992;8.648;2022-11-11T11:02:04;17.00;;;15.73;;
9547;SDS011;4812;51.992;8.648;2022-11-11T11:04:54;16.57;;;15.47;;
9547;SDS011;4812;51.992;8.648;2022-11-11T11:07:44;16.83;;;15.67;;
9547;SDS011;4812;51.992;8.648;2022-11-11T11:10:35;17.27;;;16.00;;
9547;SDS011;4812;51.992;8.648;2022-11-11T11:13:27;17.17;;;15.90;;
9547;SDS011;4812;51.992;8.648;2022-11-11T11:16:16;16.80;;;15.60;;
9547;SDS011;4812;51.992;8.648;2022-11-11T11:19:15;17.63;;;16.30;;
9547;SDS011;4812;51.992;8.648;2022-11-11T11:22:02;17.10;;;16.00;;
9547;SDS011;4812;51.992;8.648;2022-11-11T11:24:49;16.50;;;15.40;;
9547;SDS011;4812;51.992;8.648;2022-11-11T11:27:34;16.50;;;15.40;;
9547;SDS011;4812;51.992;8.648;2022-11-11T11:30:24;16.60;;;15.60;;
9547;SDS011;4812;51.992;8.648;2022-11-11T11:33:10;16.90;;;15.80;;
9547;SDS011;4812;51.992;8.648;2022-11-11T11:35:56;17.40;;;16.30;;
9547;SDS011;4812;51.992;8.648;2022-11-11T11:38:58;17.37;;;16.27;;
9547;SDS011;4812;51.992;8.648;2022-11-11T11:41:45;17.10;;;15.70;;
9547;SDS011;4812;51.992;8.648;2022-11-11T11:44:35;17.70;;;16.40;;
9547;SDS011;4812;51.992;8.648;2022-11-11T11:47:26;16.97;;;15.83;;
9547;SDS011;4812;51.992;8.648;2022-11-11T11:50:28;17.20;;;15.90;;
9547;SDS011;4812;51.992;8.648;2022-11-11T11:53:24;17.40;;;16.10;;
9547;SDS011;4812;51.992;8.648;2022-11-11T11:56:18;17.33;;;16.17;;
9547;SDS011;4812;51.992;8.648;2022-11-11T11:59:08;17.77;;;16.67;;
9547;SDS011;4812;51.992;8.648;2022-11-11T12:01:58;17.33;;;16.13;;
9547;SDS011;4812;51.992;8.648;2022-11-11T12:04:54;16.60;;;15.57;;
9547;SDS011;4812;51.992;8.648;2022-11-11T12:07:49;16.80;;;15.70;;
9547;SDS011;4812;51.992;8.648;2022-11-11T12:10:44;16.57;;;15.50;;
9547;SDS011;4812;51.992;8.648;2022-11-11T12:13:35;17.30;;;16.00;;
9547;SDS011;4812;51.992;8.648;2022-11-11T12:16:26;16.60;;;15.60;;
9547;SDS011;4812;51.992;8.648;2022-11-11T12:19:34;16.83;;;15.63;;
9547;SDS011;4812;51.992;8.648;2022-11-11T12:22:37;17.00;;;15.60;;
9547;SDS011;4812;51.992;8.648;2022-11-11T12:25:39;16.43;;;15.43;;
9547;SDS011;4812;51.992;8.648;2022-11-11T12:28:41;16.53;;;15.43;;
9547;SDS011;4812;51.992;8.648;2022-11-11T12:31:38;16.30;;;15.30;;
9547;SDS011;4812;51.992;8.648;2022-11-11T12:34:34;17.00;;;15.80;;
9547;SDS011;4812;51.992;8.648;2022-11-11T12:37:30;16.50;;;15.40;;
9547;SDS011;4812;51.992;8.648;2022-11-11T12:40:23;16.40;;;15.40;;
9547;SDS011;4812;51.992;8.648;2022-11-11T12:43:16;16.77;;;15.60;;
9547;SDS011;4812;51.992;8.648;2022-11-11T12:46:10;16.60;;;15.60;;
9547;SDS011;4812;51.992;8.648;2022-11-11T12:49:01;16.10;;;15.00;;
9547;SDS011;4812;51.992;8.648;2022-11-11T12:51:55;16.07;;;14.97;;
9547;SDS011;4812;51.992;8.648;2022-11-11T12:54:47;16.00;;;15.00;;
9547;SDS011;4812;51.992;8.648;2022-11-11T12:58:00;16.37;;;15.27;;
9547;SDS011;4812;51.992;8.648;2022-11-11T13:01:03;16.50;;;15.40;;
9547;SDS011;4812;51.992;8.648;2022-11-11T13:04:08;16.10;;;15.00;;
9547;SDS011;4812;51.992;8.648;2022-11-11T13:07:16;16.57;;;15.47;;
9547;SDS011;4812;51.992;8.648;2022-11-11T13:10:20;16.00;;;15.10;;
9547;SDS011;4812;51.992;8.648;2022-11-11T13:13:27;15.73;;;14.83;;
9547;SDS011;4812;51.992;8.648;2022-11-11T13:16:21;15.73;;;14.73;;
9547;SDS011;4812;51.992;8.648;2022-11-11T13:19:10;15.97;;;14.77;;
9547;SDS011;4812;51.992;8.648;2022-11-11T13:22:05;16.00;;;15.00;;
9547;SDS011;4812;51.992;8.648;2022-11-11T13:24:55;15.87;;;14.87;;
9547;SDS011;4812;51.992;8.648;2022-11-11T13:27:44;15.93;;;14.83;;
9547;SDS011;4812;51.992;8.648;2022-11-11T13:30:40;15.70;;;14.80;;
9547;SDS011;4812;51.992;8.648;2022-11-11T13:33:35;16.00;;;14.97;;
9547;SDS011;4812;51.992;8.648;2022-11-11T13:36:24;15.97;;;14.97;;
9547;SDS011;4812;51.992;8.648;2022-11-11T13:39:22;15.50;;;14.60;;
9547;SDS011;4812;51.992;8.648;2022-11-11T13:42:10;15.53;;;14.63;;
9547;SDS011;4812;51.992;8.648;2022-11-11T13:44:59;15.87;;;14.87;;
9547;SDS011;4812;51.992;8.648;2022-11-11T13:47:49;15.67;;;14.77;;
9547;SDS011;4812;51.992;8.648;2022-11-11T13:50:36;16.10;;;15.10;;
9547;SDS011;4812;51.992;8.648;2022-11-11T13:53:24;16.43;;;15.23;;
9547;SDS011;4812;51.992;8.648;2022-11-11T13:56:17;16.20;;;15.30;;
9547;SDS011;4812;51.992;8.648;2022-11-11T13:59:07;15.33;;;14.43;;
9547;SDS011;4812;51.992;8.648;2022-11-11T14:02:17;16.00;;;14.97;;
9547;SDS011;4812;51.992;8.648;2022-11-11T14:05:17;15.80;;;14.90;;
9547;SDS011;4812;51.992;8.648;2022-11-11T14:08:06;15.53;;;14.43;;
9547;SDS011;4812;51.992;8.648;2022-11-11T14:10:53;15.30;;;14.40;;
9547;SDS011;4812;51.992;8.648;2022-11-11T14:13:40;15.77;;;14.80;;
9547;SDS011;4812;51.992;8.648;2022-11-11T14:19:44;15.63;;;14.63;;
9547;SDS011;4812;51.992;8.648;2022-11-11T14:22:31;15.40;;;14.50;;
9547;SDS011;4812;51.992;8.648;2022-11-11T14:25:19;15.30;;;14.30;;
9547;SDS011;4812;51.992;8.648;2022-11-11T14:28:18;15.50;;;14.50;;
9547;SDS011;4812;51.992;8.648;2022-11-11T14:34:16;15.40;;;14.50;;
9547;SDS011;4812;51.992;8.648;2022-11-11T14:37:13;15.10;;;14.20;;
9547;SDS011;4812;51.992;8.648;2022-11-11T14:40:10;15.43;;;14.50;;
9547;SDS011;4812;51.992;8.648;2022-11-11T14:42:57;15.13;;;14.23;;
9547;SDS011;4812;51.992;8.648;2022-11-11T14:48:48;15.40;;;14.50;;
9547;SDS011;4812;51.992;8.648;2022-11-11T14:51:45;15.17;;;14.27;;
9547;SDS011;4812;51.992;8.648;2022-11-11T14:54:35;15.10;;;14.20;;
9547;SDS011;4812;51.992;8.648;2022-11-11T14:57:31;15.47;;;14.30;;
9547;SDS011;4812;51.992;8.648;2022-11-11T15:00:20;15.50;;;14.50;;
9547;SDS011;4812;51.992;8.648;2022-11-11T15:03:09;15.93;;;14.80;;
9547;SDS011;4812;51.992;8.648;2022-11-11T15:05:58;15.67;;;14.77;;
9547;SDS011;4812;51.992;8.648;2022-11-11T15:08:48;15.60;;;14.70;;
9547;SDS011;4812;51.992;8.648;2022-11-11T15:11:41;15.60;;;14.70;;
9547;SDS011;4812;51.992;8.648;2022-11-11T15:14:31;16.30;;;15.33;;
9547;SDS011;4812;51.992;8.648;2022-11-11T15:17:21;15.63;;;14.63;;
9547;SDS011;4812;51.992;8.648;2022-11-11T15:20:18;15.70;;;14.70;;
9547;SDS011;4812;51.992;8.648;2022-11-11T15:23:13;16.13;;;15.20;;
9547;SDS011;4812;51.992;8.648;2022-11-11T15:26:11;15.73;;;14.60;;
9547;SDS011;4812;51.992;8.648;2022-11-11T15:29:04;15.67;;;14.57;;
9547;SDS011;4812;51.992;8.648;2022-11-11T15:31:59;15.97;;;14.70;;
9547;SDS011;4812;51.992;8.648;2022-11-11T15:34:51;15.77;;;14.77;;
9547;SDS011;4812;51.992;8.648;2022-11-11T15:37:41;16.43;;;15.27;;
9547;SDS011;4812;51.992;8.648;2022-11-11T15:40:31;15.70;;;14.70;;
9547;SDS011;4812;51.992;8.648;2022-11-11T15:43:28;16.20;;;15.00;;
9547;SDS011;4812;51.992;8.648;2022-11-11T15:46:19;15.57;;;14.57;;
9547;SDS011;4812;51.992;8.648;2022-11-11T15:49:12;16.20;;;15.20;;
9547;SDS011;4812;51.992;8.648;2022-11-11T15:51:59;16.90;;;16.00;;
9547;SDS011;4812;51.992;8.648;2022-11-11T15:54:45;16.83;;;15.90;;
9547;SDS011;4812;51.992;8.648;2022-11-11T15:57:33;16.00;;;15.10;;
9547;SDS011;4812;51.992;8.648;2022-11-11T16:00:26;15.40;;;14.50;;
9547;SDS011;4812;51.992;8.648;2022-11-11T16:03:15;15.50;;;14.60;;
9547;SDS011;4812;51.992;8.648;2022-11-11T16:06:04;15.40;;;14.30;;
9547;SDS011;4812;51.992;8.648;2022-11-11T16:08:52;15.53;;;14.60;;
9547;SDS011;4812;51.992;8.648;2022-11-11T16:11:41;15.43;;;14.53;;
9547;SDS011;4812;51.992;8.648;2022-11-11T16:14:28;15.40;;;14.37;;
9547;SDS011;4812;51.992;8.648;2022-11-11T16:17:16;15.60;;;14.70;;
9547;SDS011;4812;51.992;8.648;2022-11-11T16:20:04;15.30;;;14.40;;
9547;SDS011;4812;51.992;8.648;2022-11-11T16:22:52;15.53;;;14.57;;
9547;SDS011;4812;51.992;8.648;2022-11-11T16:25:41;15.40;;;14.60;;
9547;SDS011;4812;51.992;8.648;2022-11-11T16:28:29;15.30;;;14.37;;
9547;SDS011;4812;51.992;8.648;2022-11-11T16:31:20;15.43;;;14.43;;
9547;SDS011;4812;51.992;8.648;2022-11-11T16:37:23;15.20;;;14.40;;
9547;SDS011;4812;51.992;8.648;2022-11-11T16:43:20;15.80;;;14.70;;
9547;SDS011;4812;51.992;8.648;2022-11-11T16:46:08;15.90;;;14.67;;
9547;SDS011;4812;51.992;8.648;2022-11-11T16:48:57;15.80;;;14.90;;
9547;SDS011;4812;51.992;8.648;2022-11-11T16:51:44;15.97;;;15.07;;
9547;SDS011;4812;51.992;8.648;2022-11-11T16:54:32;15.67;;;14.77;;
9547;SDS011;4812;51.992;8.648;2022-11-11T16:57:22;16.20;;;15.30;;
9547;SDS011;4812;51.992;8.648;2022-11-11T17:00:14;16.40;;;15.30;;
9547;SDS011;4812;51.992;8.648;2022-11-11T17:03:09;16.30;;;15.40;;
9547;SDS011;4812;51.992;8.648;2022-11-11T17:05:57;16.80;;;15.70;;
9547;SDS011;4812;51.992;8.648;2022-11-11T17:08:44;16.40;;;15.40;;
9547;SDS011;4812;51.992;8.648;2022-11-11T17:11:40;15.93;;;14.93;;
9547;SDS011;4812;51.992;8.648;2022-11-11T17:14:30;15.87;;;14.97;;
9547;SDS011;4812;51.992;8.648;2022-11-11T17:17:17;15.63;;;14.73;;
9547;SDS011;4812;51.992;8.648;2022-11-11T17:20:05;18.33;;;16.47;;
9547;SDS011;4812;51.992;8.648;2022-11-11T17:22:54;16.93;;;15.93;;
9547;SDS011;4812;51.992;8.648;2022-11-11T17:25:41;17.97;;;16.67;;